Latest Weather Observations for Parafield

IDS60801

Issued at 4:31 pm CDT Wednesday 22 February 2017 (issued every 30 minutes, with the page automatically refreshed every 10 minutes)

About weather observations | Map of weather stations | Latest weather observations for SA | Other Formats
Station Details ID: 023013 Name: PARAFIELD AIRPORT Lat: -34.80 Lon: 138.63 Height: 9.5 m
Data from the previous 72 hours. | See also: Recent months at Parafield
Date/Time
CDT
Temp
°C
App
Temp
°C
Dew
Point
°C
Rel
Hum
%
Delta-T
°C
Wind Press
QNH
hPa
Press
MSL
hPa
Rain since
9am
mm
Dir  Spd
km/h
Gust
km/h
Spd
kts
Gust
kts
22/04:30pm 26.0 19.6 9.4 35 9.1 W 33 44 18 24 1011.7 1011.7 0.0
22/04:00pm 25.0 18.4 7.6 33 9.2 W 32 44 17 24 1011.5 1011.5 0.0
22/03:30pm 25.8 18.9 7.4 31 9.7 WNW 33 46 18 25 1011.3 1011.3 0.0
22/03:00pm 26.3 20.2 10.5 37 8.9 W 33 44 18 24 1011.1 1011.1 0.0
22/02:30pm 25.9 19.4 10.5 38 8.6 W 35 48 19 26 1011.1 1011.1 0.0
22/02:00pm 27.0 21.9 11.9 39 8.7 WNW 30 43 16 23 1010.8 1010.8 0.0
22/01:30pm 27.6 22.6 10.8 35 9.5 WNW 28 39 15 21 1010.5 1010.5 0.0
22/01:00pm 26.1 22.6 10.3 37 8.8 WNW 19 26 10 14 1010.4 1010.4 0.0
22/12:30pm 26.4 23.1 12.8 43 7.9 W 22 32 12 17 1010.7 1010.7 0.0
22/12:00pm 25.6 22.5 14.4 50 6.7 WSW 24 37 13 20 1010.9 1010.9 0.0
22/11:30am 25.8 22.6 16.4 56 5.8 WSW 28 35 15 19 1011.2 1011.2 0.0
22/11:00am 26.1 20.7 14.9 50 6.7 WSW 37 50 20 27 1011.2 1011.2 0.0
22/10:48am 26.6 20.6 14.4 47 7.3 WNW 39 54 21 29 1011.0 1011.0 0.0
22/10:30am 28.7 20.8 7.9 27 11.3 NW 39 57 21 31 1010.6 1010.6 0.0
22/10:11am 28.4 19.4 6.5 25 11.6 WNW 43 59 23 32 1010.4 1010.4 0.0
22/10:04am 29.5 20.3 5.6 22 12.5 NW 43 61 23 33 1010.1 1010.1 0.0
22/10:00am 30.6 21.3 2.8 17 14.0 NNW 41 61 22 33 1009.7 1009.7 0.0
22/09:55am 31.0 23.1 2.3 16 14.3 NNW 33 56 18 30 1009.6 1009.6 0.0
22/09:30am 29.6 23.4 4.3 20 13.0 N 26 33 14 18 1008.8 1008.8 0.0
22/09:00am 28.1 21.5 4.4 22 12.1 NNE 28 39 15 21 1008.6 1008.6 0.0
22/08:30am 27.1 20.4 3.6 22 11.7 NNE 28 37 15 20 1008.4 1008.4 0.0
22/08:00am 25.6 18.9 3.6 24 10.9 NNE 28 35 15 19 1008.0 1008.0 0.0
22/07:30am 25.4 19.3 2.8 23 11.0 NNE 24 35 13 19 1007.8 1007.8 0.0
22/07:00am 24.9 17.7 3.0 24 10.6 NNE 30 44 16 24 1007.8 1007.8 0.0
22/06:30am 25.1 18.2 2.5 23 10.9 NNE 28 39 15 21 1007.7 1007.7 0.0
22/06:00am 25.0 17.8 3.0 24 10.7 NNE 30 41 16 22 1007.7 1007.7 0.0
22/05:30am 25.0 17.7 2.4 23 10.9 NNE 30 39 16 21 1007.8 1007.8 0.0
22/05:00am 25.0 17.7 2.4 23 10.9 NNE 30 41 16 22 1007.9 1007.9 0.0
22/04:30am 25.1 17.7 1.9 22 11.1 NNE 30 44 16 24 1008.1 1008.1 0.0
22/04:00am 25.1 17.2 1.3 21 11.2 NNE 32 41 17 22 1008.4 1008.4 0.0
22/03:30am 24.7 17.5 0.9 21 11.1 NE 28 41 15 22 1008.5 1008.5 0.0
22/03:00am 25.0 18.2 0.5 20 11.4 NNE 26 35 14 19 1009.3 1009.3 0.0
22/02:30am 25.2 18.1 1.3 21 11.3 NNE 28 39 15 21 1009.4 1009.4 0.0
22/02:00am 24.8 18.6 2.3 23 10.8 NNE 24 35 13 19 1010.0 1010.0 0.0
22/01:30am 25.2 19.2 3.2 24 10.8 NNE 24 33 13 18 1010.4 1010.4 0.0
22/01:00am 26.2 20.2 3.5 23 11.2 NNE 24 35 13 19 1010.6 1010.6 0.0
22/12:30am 25.6 19.6 3.6 24 10.9 NE 24 33 13 18 1011.0 1011.0 0.0
22/12:00am 25.6 19.7 4.1 25 10.7 NE 24 35 13 19 1011.3 1011.3 0.0
 
Date/Time
CDT
Temp
°C
App
Temp
°C
Dew
Point
°C
Rel
Hum
%
Delta-T
°C
Wind Press
QNH
hPa
Press
MSL
hPa
Rain since
9am
mm
Dir  Spd
km/h
Gust
km/h
Spd
kts
Gust
kts
21/11:30pm 26.1 19.8 4.0 24 11.0 NE 26 32 14 17 1011.6 1011.6 0.0
21/11:00pm 25.5 20.1 4.6 26 10.5 NE 22 30 12 16 1011.9 1011.9 0.0
21/10:30pm 25.0 21.1 5.2 28 10.0 NE 15 28 8 15 1012.4 1012.4 0.0
21/10:00pm 22.2 19.5 7.2 38 7.7 NE 11 19 6 10 1012.5 1012.5 0.0
21/09:30pm 21.0 20.9 9.3 47 6.2 CALM 0 0 0 0 1012.6 1012.6 0.0
21/09:00pm 22.9 21.4 8.6 40 7.6 ENE 6 7 3 4 1012.4 1012.4 0.0
21/08:30pm 22.7 20.7 8.8 41 7.4 SSE 9 11 5 6 1012.3 1012.3 0.0
21/08:00pm 24.4 23.3 8.4 36 8.5 SW 4 9 2 5 1012.1 1012.1 0.0
21/07:30pm 27.1 25.6 8.5 31 10.1 SSW 6 7 3 4 1011.8 1011.8 0.0
21/07:00pm 28.8 26.6 7.9 27 11.3 SW 9 13 5 7 1011.6 1011.6 0.0
21/06:30pm 29.0 26.1 8.1 27 11.4 SW 13 17 7 9 1011.6 1011.6 0.0
21/06:00pm 29.5 25.9 8.5 27 11.6 WSW 17 20 9 11 1011.8 1011.8 0.0
21/05:30pm 30.6 26.8 8.9 26 12.1 WSW 19 24 10 13 1011.9 1011.9 0.0
21/05:00pm 31.0 28.5 8.1 24 12.6 SW 11 17 6 9 1012.1 1012.1 0.0
21/04:30pm 30.3 28.2 8.1 25 12.2 SW 9 17 5 9 1012.6 1012.6 0.0
21/04:00pm 30.3 28.2 8.1 25 12.2 SSW 9 17 5 9 1013.0 1013.0 0.0
21/03:30pm 29.7 27.1 7.6 25 12.0 WSW 11 20 6 11 1013.6 1013.6 0.0
21/03:00pm 29.5 25.9 6.8 24 12.1 WNW 15 24 8 13 1014.3 1014.3 0.0
21/02:30pm 29.2 26.8 7.2 25 11.8 WNW 9 15 5 8 1014.9 1014.9 0.0
21/02:00pm 29.2 26.7 8.3 27 11.4 WNW 11 24 6 13 1015.2 1015.2 0.0
21/01:30pm 28.8 25.6 8.5 28 11.1 W 15 22 8 12 1015.6 1015.6 0.0
21/01:00pm 27.1 23.6 7.0 28 10.6 N 15 28 8 15 1016.3 1016.3 0.0
21/12:30pm 26.8 22.8 6.8 28 10.5 NE 17 24 9 13 1016.8 1016.8 0.0
21/12:00pm 26.2 21.9 6.8 29 10.2 NNE 19 28 10 15 1017.5 1017.5 0.0
21/11:30am 25.3 21.5 7.4 32 9.4 NNE 17 26 9 14 1018.0 1018.0 0.0
21/11:00am 24.2 19.8 6.5 32 9.1 NNE 19 26 10 14 1018.2 1018.2 0.0
21/10:30am 23.6 19.2 7.3 35 8.5 NNE 20 28 11 15 1018.4 1018.4 0.0
21/10:00am 22.3 17.8 6.9 37 7.9 NE 20 28 11 15 1018.4 1018.4 0.0
21/09:30am 21.4 17.5 7.3 40 7.2 NE 17 22 9 12 1018.8 1018.8 0.0
21/09:00am 19.8 16.5 6.5 42 6.7 NE 13 17 7 9 1018.8 1018.8 0.0
21/08:30am 17.8 16.5 7.5 51 5.2 NE 4 9 2 5 1018.6 1018.6 0.0
21/08:00am 14.5 14.2 8.7 68 2.9 CALM 0 0 0 0 1018.7 1018.7 0.0
21/07:30am 11.2 9.4 7.9 80 1.6 N 7 11 4 6 1018.0 1018.0 0.0
21/07:00am 10.9 9.1 7.0 77 1.9 ENE 6 7 3 4 1017.7 1017.7 0.0
21/06:30am 10.9 10.1 6.5 74 2.1 CALM 0 6 0 3 1017.9 1017.9 0.0
21/06:00am 12.2 10.2 7.1 71 2.4 NE 7 9 4 5 1017.6 1017.6 0.0
21/05:30am 12.1 11.3 6.6 69 2.6 CALM 0 0 0 0 1017.6 1017.6 0.0
21/05:00am 13.1 11.1 6.9 66 3.0 ENE 7 11 4 6 1017.6 1017.6 0.0
21/04:30am 13.2 11.3 7.4 68 2.8 ENE 7 13 4 7 1017.6 1017.6 0.0
21/04:00am 13.5 10.9 7.7 68 2.9 E 11 15 6 8 1017.7 1017.7 0.0
21/03:30am 13.6 12.0 7.8 68 2.9 ENE 6 11 3 6 1017.8 1017.8 0.0
21/03:00am 13.8 12.2 7.8 67 3.0 E 6 9 3 5 1018.0 1018.0 0.0
21/02:30am 13.7 11.3 7.2 65 3.2 E 9 15 5 8 1018.2 1018.2 0.0
21/02:00am 14.0 11.0 7.5 65 3.2 E 13 17 7 9 1018.4 1018.4 0.0
21/01:30am 13.8 11.3 8.0 68 2.9 E 11 17 6 9 1018.5 1018.5 0.0
21/01:00am 14.2 12.6 7.9 66 3.1 ENE 6 9 3 5 1018.6 1018.6 0.0
21/12:30am 14.5 12.7 7.8 64 3.3 ENE 7 11 4 6 1018.8 1018.8 0.0
21/12:00am 14.7 11.7 7.7 63 3.5 ESE 13 20 7 11 1019.1 1019.1 0.0
 
Date/Time
CDT
Temp
°C
App
Temp
°C
Dew
Point
°C
Rel
Hum
%
Delta-T
°C
Wind Press
QNH
hPa
Press
MSL
hPa
Rain since
9am
mm
Dir  Spd
km/h
Gust
km/h
Spd
kts
Gust
kts
20/11:30pm 14.8 11.3 7.1 60 3.8 ESE 15 20 8 11 1019.0 1019.0 0.0
20/11:00pm 15.3 11.4 7.1 58 4.0 ESE 17 24 9 13 1019.1 1019.1 0.0
20/10:30pm 15.4 11.5 7.2 58 4.0 ESE 17 22 9 12 1019.1 1019.1 0.0
20/10:00pm 15.7 11.8 7.2 57 4.2 ESE 17 24 9 13 1018.8 1018.8 0.0
20/09:30pm 16.1 12.2 7.3 56 4.4 SE 17 24 9 13 1018.6 1018.6 0.0
20/09:00pm 16.7 12.9 7.6 55 4.6 SE 17 24 9 13 1018.4 1018.4 0.0
20/08:30pm 17.8 13.1 7.8 52 5.1 SSE 22 28 12 15 1018.1 1018.1 0.0
20/08:00pm 18.4 14.9 8.9 54 4.9 SW 17 26 9 14 1017.7 1017.7 0.0
20/07:30pm 19.3 15.8 8.9 51 5.4 SW 17 22 9 12 1017.4 1017.4 0.0
20/07:00pm 20.1 15.9 8.1 46 6.2 WSW 20 26 11 14 1017.1 1017.1 0.0
20/06:30pm 20.8 16.7 7.8 43 6.7 SW 19 24 10 13 1016.8 1016.8 0.0
20/06:00pm 21.4 16.6 7.3 40 7.2 WSW 22 30 12 16 1016.6 1016.6 0.0
20/05:30pm 21.8 17.4 7.2 39 7.5 SW 20 28 11 15 1016.6 1016.6 0.0
20/05:00pm 21.8 17.5 7.2 39 7.5 WSW 19 26 10 14 1016.5 1016.5 0.0
20/04:30pm 22.2 18.0 8.3 41 7.3 WSW 20 35 11 19 1016.6 1016.6 0.0
20/04:00pm 22.2 17.6 8.3 41 7.3 WSW 22 30 12 16 1016.7 1016.7 0.0
20/03:30pm 21.9 17.1 7.3 39 7.5 WSW 22 32 12 17 1017.0 1017.0 0.0
20/03:00pm 21.3 16.5 7.5 41 7.1 WSW 22 33 12 18 1017.2 1017.2 0.0
20/02:30pm 20.9 15.9 6.4 39 7.3 WSW 22 46 12 25 1017.5 1017.5 0.0
20/02:00pm 21.9 17.4 7.0 38 7.6 SW 20 33 11 18 1017.6 1017.6 0.0
20/01:30pm 20.2 17.1 7.2 43 6.6 SSW 13 22 7 12 1017.6 1017.6 0.0
20/01:00pm 20.3 18.0 8.9 48 6.0 WNW 11 17 6 9 1017.9 1017.9 0.0
20/12:30pm 20.2 18.5 8.2 46 6.2 WSW 7 15 4 8 1018.1 1018.1 0.0
20/12:00pm 19.9 17.1 8.6 48 5.9 W 13 20 7 11 1018.3 1018.3 0.0
20/11:30am 18.7 16.6 8.1 50 5.4 W 9 19 5 10 1018.4 1018.4 0.0
20/11:00am 19.0 17.0 8.6 51 5.4 W 9 15 5 8 1018.7 1018.7 0.0
20/10:30am 19.4 18.6 9.6 53 5.2 SE 4 9 2 5 1018.9 1018.9 0.0
20/10:00am 18.2 17.3 9.3 56 4.7 S 4 11 2 6 1018.9 1018.9 0.0
20/09:30am 17.2 16.8 9.6 61 4.0 N 2 9 1 5 1018.8 1018.8 0.0
20/09:00am 15.7 14.4 9.8 68 3.1 N 7 11 4 6 1018.6 1018.6 0.4
20/08:30am 15.2 13.7 10.4 73 2.5 NNE 9 11 5 6 1018.5 1018.5 0.4
20/08:00am 14.2 13.1 10.8 80 1.8 N 7 9 4 5 1018.3 1018.3 0.4
20/07:30am 13.4 12.0 10.9 85 1.3 NNW 9 11 5 6 1017.8 1017.8 0.4
20/07:00am 12.8 12.9 11.4 91 0.7 WNW 2 7 1 4 1017.3 1017.3 0.4
20/06:30am 12.2 10.8 10.8 91 0.7 WNW 9 9 5 5 1017.4 1017.4 0.4
20/06:00am 12.0 10.8 9.7 86 1.2 NE 6 6 3 3 1016.9 1016.9 0.4
20/05:30am 12.3 11.0 9.3 82 1.5 NE 6 7 3 4 1016.6 1016.6 0.4
20/05:00am 12.0 10.7 9.2 83 1.4 SE 6 7 3 4 1016.5 1016.5 0.4
20/04:30am 12.0 9.6 8.8 81 1.6 SSE 11 13 6 7 1016.3 1016.3 0.4
20/04:00am 12.4 10.1 9.1 80 1.7 SSE 11 15 6 8 1016.3 1016.3 0.4
20/03:30am 14.1 11.9 9.5 74 2.4 S 11 15 6 8 1016.2 1016.2 0.4
20/03:00am 14.8 12.8 10.0 73 2.5 SSW 11 15 6 8 1016.5 1016.5 0.4
20/02:30am 14.9 12.5 9.9 72 2.6 SSW 13 17 7 9 1016.6 1016.6 0.4
20/02:00am 15.0 12.5 9.8 71 2.7 SW 13 17 7 9 1016.8 1016.8 0.4
20/01:30am 14.8 13.1 10.0 73 2.5 SW 9 11 5 6 1016.8 1016.8 0.4
20/01:00am 14.4 12.7 9.8 74 2.4 S 9 11 5 6 1016.9 1016.9 0.4
20/12:30am 14.3 12.5 9.3 72 2.6 S 9 13 5 7 1016.8 1016.8 0.4
20/12:00am 15.2 11.9 9.6 69 2.9 SSE 17 24 9 13 1016.9 1016.9 0.4
 
Date/Time
CDT
Temp
°C
App
Temp
°C
Dew
Point
°C
Rel
Hum
%
Delta-T
°C
Wind Press
QNH
hPa
Press
MSL
hPa
Rain since
9am
mm
Dir  Spd
km/h
Gust
km/h
Spd
kts
Gust
kts
19/11:30pm 15.1 11.4 10.1 72 2.6 S 20 28 11 15 1017.0 1017.0 0.4
19/11:00pm 14.6 12.2 10.0 74 2.4 S 13 19 7 10 1017.1 1017.1 0.4
19/10:30pm 13.6 10.9 8.9 73 2.4 S 13 17 7 9 1017.1 1017.1 0.4
19/10:00pm 14.3 11.6 8.9 70 2.7 SSW 13 20 7 11 1017.1 1017.1 0.4
19/09:30pm 15.1 11.7 9.0 67 3.1 SSW 17 22 9 12 1016.9 1016.9 0.4
19/09:00pm 15.7 11.9 9.8 68 3.1 SSW 20 26 11 14 1016.5 1016.5 0.4
19/08:30pm 16.8 13.1 10.2 65 3.5 SSW 20 32 11 17 1016.3 1016.3 0.4
19/08:00pm 16.7 11.7 9.4 62 3.8 SSW 26 39 14 21 1016.1 1016.1 0.4
19/07:30pm 17.4 13.2 9.8 61 4.0 SSW 22 32 12 17 1015.8 1015.8 0.4
19/07:00pm 18.0 13.7 9.4 57 4.5 SW 22 35 12 19 1015.7 1015.7 0.4
19/06:30pm 18.0 13.5 9.9 59 4.3 SW 24 35 13 19 1015.5 1015.5 0.4
19/06:00pm 18.7 13.8 10.0 57 4.6 SSW 26 39 14 21 1015.6 1015.6 0.4
19/05:30pm 18.8 13.0 9.6 55 4.9 SW 30 43 16 23 1015.5 1015.5 0.4
19/05:00pm 19.9 14.3 10.0 53 5.3 SW 30 41 16 22 1015.7 1015.7 0.4

Other Formats:

Comma delimited format used in spreadsheet applications
http://www.bom.gov.au/fwo/IDS60801/IDS60801.95677.axf

JavaScript Object Notation format (JSON) in row-major order
http://www.bom.gov.au/fwo/IDS60801/IDS60801.95677.json